sensor_id;sensor_type;location;lat;lon;timestamp;P1;durP1;ratioP1;P2;durP2;ratioP2
14231;SDS011;7200;52.194;9.900;2022-07-17T00:01:55;4.43;;;1.40;;
14231;SDS011;7200;52.194;9.900;2022-07-17T00:04:21;2.17;;;1.07;;
14231;SDS011;7200;52.194;9.900;2022-07-17T00:06:46;2.83;;;0.93;;
14231;SDS011;7200;52.194;9.900;2022-07-17T00:09:11;6.13;;;1.40;;
14231;SDS011;7200;52.194;9.900;2022-07-17T00:11:36;5.63;;;1.53;;
14231;SDS011;7200;52.194;9.900;2022-07-17T00:14:02;3.27;;;2.23;;
14231;SDS011;7200;52.194;9.900;2022-07-17T00:16:27;4.77;;;1.53;;
14231;SDS011;7200;52.194;9.900;2022-07-17T00:18:52;4.57;;;0.90;;
14231;SDS011;7200;52.194;9.900;2022-07-17T00:21:18;3.80;;;1.20;;
14231;SDS011;7200;52.194;9.900;2022-07-17T00:23:43;3.17;;;1.27;;
14231;SDS011;7200;52.194;9.900;2022-07-17T00:26:09;4.60;;;1.60;;
14231;SDS011;7200;52.194;9.900;2022-07-17T00:28:34;5.47;;;2.10;;
14231;SDS011;7200;52.194;9.900;2022-07-17T00:30:59;5.03;;;1.70;;
14231;SDS011;7200;52.194;9.900;2022-07-17T00:33:25;4.10;;;1.63;;
14231;SDS011;7200;52.194;9.900;2022-07-17T00:35:50;3.77;;;1.20;;
14231;SDS011;7200;52.194;9.900;2022-07-17T00:38:15;5.03;;;1.60;;
14231;SDS011;7200;52.194;9.900;2022-07-17T00:40:41;5.70;;;2.13;;
14231;SDS011;7200;52.194;9.900;2022-07-17T00:43:06;3.70;;;1.10;;
14231;SDS011;7200;52.194;9.900;2022-07-17T00:45:32;7.73;;;1.93;;
14231;SDS011;7200;52.194;9.900;2022-07-17T00:48:04;3.93;;;2.23;;
14231;SDS011;7200;52.194;9.900;2022-07-17T00:50:35;4.53;;;1.67;;
14231;SDS011;7200;52.194;9.900;2022-07-17T00:53:02;3.30;;;1.47;;
14231;SDS011;7200;52.194;9.900;2022-07-17T00:55:28;3.20;;;1.30;;
14231;SDS011;7200;52.194;9.900;2022-07-17T00:57:55;3.80;;;1.80;;
14231;SDS011;7200;52.194;9.900;2022-07-17T01:00:21;2.37;;;1.53;;
14231;SDS011;7200;52.194;9.900;2022-07-17T01:02:50;4.53;;;1.50;;
14231;SDS011;7200;52.194;9.900;2022-07-17T01:05:18;5.43;;;1.50;;
14231;SDS011;7200;52.194;9.900;2022-07-17T01:07:44;4.40;;;2.03;;
14231;SDS011;7200;52.194;9.900;2022-07-17T01:10:11;8.63;;;1.60;;
14231;SDS011;7200;52.194;9.900;2022-07-17T01:12:37;2.47;;;1.40;;
14231;SDS011;7200;52.194;9.900;2022-07-17T01:15:05;6.00;;;1.23;;
14231;SDS011;7200;52.194;9.900;2022-07-17T01:17:31;4.67;;;1.60;;
14231;SDS011;7200;52.194;9.900;2022-07-17T01:19:56;4.53;;;1.57;;
14231;SDS011;7200;52.194;9.900;2022-07-17T01:22:22;4.50;;;1.87;;
14231;SDS011;7200;52.194;9.900;2022-07-17T01:24:48;3.97;;;1.67;;
14231;SDS011;7200;52.194;9.900;2022-07-17T01:27:13;4.73;;;1.20;;
14231;SDS011;7200;52.194;9.900;2022-07-17T01:29:39;7.33;;;1.87;;
14231;SDS011;7200;52.194;9.900;2022-07-17T01:32:05;2.97;;;1.50;;
14231;SDS011;7200;52.194;9.900;2022-07-17T01:34:40;3.57;;;1.47;;
14231;SDS011;7200;52.194;9.900;2022-07-17T01:37:06;3.80;;;1.30;;
14231;SDS011;7200;52.194;9.900;2022-07-17T01:39:31;3.97;;;1.37;;
14231;SDS011;7200;52.194;9.900;2022-07-17T01:42:15;3.83;;;1.60;;
14231;SDS011;7200;52.194;9.900;2022-07-17T01:44:40;3.33;;;1.30;;
14231;SDS011;7200;52.194;9.900;2022-07-17T01:47:06;5.47;;;1.40;;
14231;SDS011;7200;52.194;9.900;2022-07-17T01:49:31;3.53;;;1.80;;
14231;SDS011;7200;52.194;9.900;2022-07-17T01:51:56;5.90;;;1.60;;
14231;SDS011;7200;52.194;9.900;2022-07-17T01:54:27;2.27;;;1.20;;
14231;SDS011;7200;52.194;9.900;2022-07-17T01:56:53;4.10;;;1.47;;
14231;SDS011;7200;52.194;9.900;2022-07-17T01:59:19;3.57;;;1.23;;
14231;SDS011;7200;52.194;9.900;2022-07-17T02:01:44;4.40;;;1.27;;
14231;SDS011;7200;52.194;9.900;2022-07-17T02:04:10;4.17;;;1.40;;
14231;SDS011;7200;52.194;9.900;2022-07-17T02:06:35;3.20;;;1.47;;
14231;SDS011;7200;52.194;9.900;2022-07-17T02:09:00;4.87;;;1.40;;
14231;SDS011;7200;52.194;9.900;2022-07-17T02:11:25;4.47;;;1.60;;
14231;SDS011;7200;52.194;9.900;2022-07-17T02:13:51;4.20;;;1.80;;
14231;SDS011;7200;52.194;9.900;2022-07-17T02:16:16;3.03;;;1.30;;
14231;SDS011;7200;52.194;9.900;2022-07-17T02:18:41;2.53;;;1.10;;
14231;SDS011;7200;52.194;9.900;2022-07-17T02:21:07;3.33;;;1.27;;
14231;SDS011;7200;52.194;9.900;2022-07-17T02:23:32;5.20;;;1.47;;
14231;SDS011;7200;52.194;9.900;2022-07-17T02:25:57;2.43;;;1.33;;
14231;SDS011;7200;52.194;9.900;2022-07-17T02:28:23;2.80;;;1.50;;
14231;SDS011;7200;52.194;9.900;2022-07-17T02:30:48;3.50;;;1.43;;
14231;SDS011;7200;52.194;9.900;2022-07-17T02:33:13;2.67;;;1.00;;
14231;SDS011;7200;52.194;9.900;2022-07-17T02:35:39;2.47;;;1.20;;
14231;SDS011;7200;52.194;9.900;2022-07-17T02:38:04;2.97;;;1.43;;
14231;SDS011;7200;52.194;9.900;2022-07-17T02:40:29;7.20;;;1.90;;
14231;SDS011;7200;52.194;9.900;2022-07-17T02:42:55;3.60;;;1.93;;
14231;SDS011;7200;52.194;9.900;2022-07-17T02:45:20;1.43;;;1.17;;
14231;SDS011;7200;52.194;9.900;2022-07-17T02:47:49;1.67;;;1.10;;
14231;SDS011;7200;52.194;9.900;2022-07-17T02:50:15;2.87;;;1.40;;
14231;SDS011;7200;52.194;9.900;2022-07-17T02:52:40;1.97;;;1.20;;
14231;SDS011;7200;52.194;9.900;2022-07-17T02:55:08;5.73;;;1.57;;
14231;SDS011;7200;52.194;9.900;2022-07-17T02:57:34;4.27;;;1.47;;
14231;SDS011;7200;52.194;9.900;2022-07-17T03:00:00;3.93;;;1.50;;
14231;SDS011;7200;52.194;9.900;2022-07-17T03:02:25;1.93;;;1.20;;
14231;SDS011;7200;52.194;9.900;2022-07-17T03:04:50;4.20;;;1.30;;
14231;SDS011;7200;52.194;9.900;2022-07-17T03:07:15;3.93;;;1.40;;
14231;SDS011;7200;52.194;9.900;2022-07-17T03:09:41;4.93;;;2.03;;
14231;SDS011;7200;52.194;9.900;2022-07-17T03:12:06;2.83;;;1.40;;
14231;SDS011;7200;52.194;9.900;2022-07-17T03:14:31;1.70;;;1.47;;
14231;SDS011;7200;52.194;9.900;2022-07-17T03:16:57;6.77;;;2.07;;
14231;SDS011;7200;52.194;9.900;2022-07-17T03:19:22;3.90;;;1.43;;
14231;SDS011;7200;52.194;9.900;2022-07-17T03:21:47;3.80;;;1.90;;
14231;SDS011;7200;52.194;9.900;2022-07-17T03:24:13;3.73;;;1.77;;
14231;SDS011;7200;52.194;9.900;2022-07-17T03:26:38;4.40;;;1.60;;
14231;SDS011;7200;52.194;9.900;2022-07-17T03:29:04;4.03;;;1.53;;
14231;SDS011;7200;52.194;9.900;2022-07-17T03:31:29;2.63;;;1.73;;
14231;SDS011;7200;52.194;9.900;2022-07-17T03:33:54;3.90;;;1.60;;
14231;SDS011;7200;52.194;9.900;2022-07-17T03:36:20;3.80;;;1.97;;
14231;SDS011;7200;52.194;9.900;2022-07-17T03:38:45;2.50;;;1.53;;
14231;SDS011;7200;52.194;9.900;2022-07-17T03:41:10;2.87;;;1.60;;
14231;SDS011;7200;52.194;9.900;2022-07-17T03:43:36;5.23;;;1.90;;
14231;SDS011;7200;52.194;9.900;2022-07-17T03:46:02;2.27;;;1.80;;
14231;SDS011;7200;52.194;9.900;2022-07-17T03:48:27;2.20;;;1.70;;
14231;SDS011;7200;52.194;9.900;2022-07-17T03:50:54;3.30;;;1.70;;
14231;SDS011;7200;52.194;9.900;2022-07-17T03:53:19;4.47;;;1.73;;
14231;SDS011;7200;52.194;9.900;2022-07-17T03:55:44;2.37;;;1.67;;
14231;SDS011;7200;52.194;9.900;2022-07-17T03:58:09;3.53;;;1.37;;
14231;SDS011;7200;52.194;9.900;2022-07-17T04:00:35;2.97;;;1.60;;
14231;SDS011;7200;52.194;9.900;2022-07-17T04:03:00;5.93;;;1.83;;
14231;SDS011;7200;52.194;9.900;2022-07-17T04:05:25;2.40;;;1.50;;
14231;SDS011;7200;52.194;9.900;2022-07-17T04:07:51;3.67;;;1.90;;
14231;SDS011;7200;52.194;9.900;2022-07-17T04:10:16;4.33;;;1.70;;
14231;SDS011;7200;52.194;9.900;2022-07-17T04:12:41;3.97;;;2.37;;
14231;SDS011;7200;52.194;9.900;2022-07-17T04:15:08;2.57;;;1.40;;
14231;SDS011;7200;52.194;9.900;2022-07-17T04:17:34;3.83;;;1.50;;
14231;SDS011;7200;52.194;9.900;2022-07-17T04:20:00;2.30;;;1.40;;
14231;SDS011;7200;52.194;9.900;2022-07-17T04:22:25;5.83;;;1.57;;
14231;SDS011;7200;52.194;9.900;2022-07-17T04:24:51;6.83;;;1.90;;
14231;SDS011;7200;52.194;9.900;2022-07-17T04:27:16;2.60;;;1.60;;
14231;SDS011;7200;52.194;9.900;2022-07-17T04:29:42;3.57;;;1.40;;
14231;SDS011;7200;52.194;9.900;2022-07-17T04:32:07;3.80;;;1.60;;
14231;SDS011;7200;52.194;9.900;2022-07-17T04:34:33;4.23;;;2.23;;
14231;SDS011;7200;52.194;9.900;2022-07-17T04:36:59;2.33;;;1.60;;
14231;SDS011;7200;52.194;9.900;2022-07-17T04:39:25;2.33;;;1.23;;
14231;SDS011;7200;52.194;9.900;2022-07-17T04:41:51;2.57;;;1.47;;
14231;SDS011;7200;52.194;9.900;2022-07-17T04:44:16;2.03;;;1.27;;
14231;SDS011;7200;52.194;9.900;2022-07-17T04:46:42;3.27;;;1.10;;
14231;SDS011;7200;52.194;9.900;2022-07-17T04:49:07;4.50;;;1.33;;
14231;SDS011;7200;52.194;9.900;2022-07-17T04:51:32;4.43;;;1.67;;
14231;SDS011;7200;52.194;9.900;2022-07-17T04:53:58;4.67;;;1.20;;
14231;SDS011;7200;52.194;9.900;2022-07-17T04:56:24;3.97;;;1.13;;
14231;SDS011;7200;52.194;9.900;2022-07-17T04:58:52;4.53;;;1.20;;
14231;SDS011;7200;52.194;9.900;2022-07-17T05:01:17;3.50;;;1.10;;
14231;SDS011;7200;52.194;9.900;2022-07-17T05:03:43;4.53;;;1.40;;
14231;SDS011;7200;52.194;9.900;2022-07-17T05:06:08;2.67;;;1.00;;
14231;SDS011;7200;52.194;9.900;2022-07-17T05:08:34;5.40;;;1.17;;
14231;SDS011;7200;52.194;9.900;2022-07-17T05:11:00;3.07;;;1.57;;
14231;SDS011;7200;52.194;9.900;2022-07-17T05:13:28;2.87;;;1.10;;
14231;SDS011;7200;52.194;9.900;2022-07-17T05:15:54;5.57;;;1.00;;
14231;SDS011;7200;52.194;9.900;2022-07-17T05:18:19;3.90;;;1.20;;
14231;SDS011;7200;52.194;9.900;2022-07-17T05:20:45;3.43;;;1.10;;
14231;SDS011;7200;52.194;9.900;2022-07-17T05:23:10;4.47;;;1.17;;
14231;SDS011;7200;52.194;9.900;2022-07-17T05:25:35;7.43;;;1.40;;
14231;SDS011;7200;52.194;9.900;2022-07-17T05:28:01;3.17;;;1.10;;
14231;SDS011;7200;52.194;9.900;2022-07-17T05:30:27;3.60;;;1.07;;
14231;SDS011;7200;52.194;9.900;2022-07-17T05:32:53;3.07;;;1.30;;
14231;SDS011;7200;52.194;9.900;2022-07-17T05:35:19;6.10;;;1.73;;
14231;SDS011;7200;52.194;9.900;2022-07-17T05:37:44;3.67;;;1.23;;
14231;SDS011;7200;52.194;9.900;2022-07-17T05:40:10;6.50;;;1.40;;
14231;SDS011;7200;52.194;9.900;2022-07-17T05:42:35;4.00;;;1.37;;
14231;SDS011;7200;52.194;9.900;2022-07-17T05:45:01;3.20;;;1.10;;
14231;SDS011;7200;52.194;9.900;2022-07-17T05:47:26;3.63;;;1.37;;
14231;SDS011;7200;52.194;9.900;2022-07-17T05:49:51;4.13;;;1.40;;
14231;SDS011;7200;52.194;9.900;2022-07-17T05:52:17;4.90;;;1.10;;
14231;SDS011;7200;52.194;9.900;2022-07-17T05:54:42;5.27;;;1.33;;
14231;SDS011;7200;52.194;9.900;2022-07-17T05:57:08;3.40;;;1.00;;
14231;SDS011;7200;52.194;9.900;2022-07-17T05:59:33;5.33;;;1.13;;
14231;SDS011;7200;52.194;9.900;2022-07-17T06:01:59;3.33;;;1.50;;
14231;SDS011;7200;52.194;9.900;2022-07-17T06:04:24;2.67;;;1.07;;
14231;SDS011;7200;52.194;9.900;2022-07-17T06:06:50;5.27;;;1.23;;
14231;SDS011;7200;52.194;9.900;2022-07-17T06:09:15;3.57;;;1.20;;
14231;SDS011;7200;52.194;9.900;2022-07-17T06:11:40;3.43;;;1.30;;
14231;SDS011;7200;52.194;9.900;2022-07-17T06:14:06;6.13;;;1.53;;
14231;SDS011;7200;52.194;9.900;2022-07-17T06:16:31;7.20;;;1.20;;
14231;SDS011;7200;52.194;9.900;2022-07-17T06:18:56;2.80;;;1.00;;
14231;SDS011;7200;52.194;9.900;2022-07-17T06:21:22;7.47;;;1.30;;
14231;SDS011;7200;52.194;9.900;2022-07-17T06:23:47;1.83;;;1.10;;
14231;SDS011;7200;52.194;9.900;2022-07-17T06:26:12;4.03;;;1.30;;
14231;SDS011;7200;52.194;9.900;2022-07-17T06:28:38;2.07;;;1.00;;
14231;SDS011;7200;52.194;9.900;2022-07-17T06:31:03;6.50;;;1.37;;
14231;SDS011;7200;52.194;9.900;2022-07-17T06:33:29;3.77;;;1.00;;
14231;SDS011;7200;52.194;9.900;2022-07-17T06:35:54;6.13;;;1.40;;
14231;SDS011;7200;52.194;9.900;2022-07-17T06:38:19;4.17;;;1.10;;
14231;SDS011;7200;52.194;9.900;2022-07-17T06:40:45;8.80;;;1.47;;
14231;SDS011;7200;52.194;9.900;2022-07-17T06:43:10;7.37;;;1.20;;
14231;SDS011;7200;52.194;9.900;2022-07-17T06:45:35;3.30;;;1.07;;
14231;SDS011;7200;52.194;9.900;2022-07-17T06:48:01;7.47;;;0.97;;
14231;SDS011;7200;52.194;9.900;2022-07-17T06:50:28;2.37;;;1.10;;
14231;SDS011;7200;52.194;9.900;2022-07-17T06:52:53;3.40;;;1.20;;
14231;SDS011;7200;52.194;9.900;2022-07-17T06:55:19;3.03;;;1.00;;
14231;SDS011;7200;52.194;9.900;2022-07-17T06:57:44;5.80;;;1.40;;
14231;SDS011;7200;52.194;9.900;2022-07-17T07:00:09;6.23;;;2.20;;
14231;SDS011;7200;52.194;9.900;2022-07-17T07:02:35;3.70;;;1.07;;
14231;SDS011;7200;52.194;9.900;2022-07-17T07:05:01;2.97;;;1.20;;
14231;SDS011;7200;52.194;9.900;2022-07-17T07:07:27;3.57;;;0.90;;
14231;SDS011;7200;52.194;9.900;2022-07-17T07:09:52;4.53;;;1.10;;
14231;SDS011;7200;52.194;9.900;2022-07-17T07:12:18;6.17;;;0.90;;
14231;SDS011;7200;52.194;9.900;2022-07-17T07:14:43;2.87;;;0.93;;
14231;SDS011;7200;52.194;9.900;2022-07-17T07:17:08;4.10;;;1.20;;
14231;SDS011;7200;52.194;9.900;2022-07-17T07:19:34;5.97;;;1.87;;
14231;SDS011;7200;52.194;9.900;2022-07-17T07:21:59;3.70;;;1.00;;
14231;SDS011;7200;52.194;9.900;2022-07-17T07:24:24;3.93;;;1.10;;
14231;SDS011;7200;52.194;9.900;2022-07-17T07:26:50;3.67;;;1.17;;
14231;SDS011;7200;52.194;9.900;2022-07-17T07:29:15;5.87;;;1.20;;
14231;SDS011;7200;52.194;9.900;2022-07-17T07:31:41;5.17;;;1.20;;
14231;SDS011;7200;52.194;9.900;2022-07-17T07:34:06;5.23;;;1.20;;
14231;SDS011;7200;52.194;9.900;2022-07-17T07:36:32;3.80;;;1.43;;
14231;SDS011;7200;52.194;9.900;2022-07-17T07:38:58;3.80;;;1.00;;
14231;SDS011;7200;52.194;9.900;2022-07-17T07:41:23;3.77;;;1.43;;
14231;SDS011;7200;52.194;9.900;2022-07-17T07:43:49;5.20;;;0.93;;
14231;SDS011;7200;52.194;9.900;2022-07-17T07:46:14;1.97;;;1.10;;
14231;SDS011;7200;52.194;9.900;2022-07-17T07:48:39;4.93;;;1.23;;
14231;SDS011;7200;52.194;9.900;2022-07-17T07:51:05;4.20;;;0.97;;
14231;SDS011;7200;52.194;9.900;2022-07-17T07:53:30;3.63;;;1.10;;
14231;SDS011;7200;52.194;9.900;2022-07-17T07:55:55;2.73;;;0.90;;
14231;SDS011;7200;52.194;9.900;2022-07-17T07:58:21;4.87;;;1.33;;
14231;SDS011;7200;52.194;9.900;2022-07-17T08:00:46;2.50;;;1.00;;
14231;SDS011;7200;52.194;9.900;2022-07-17T08:03:12;3.30;;;0.90;;
14231;SDS011;7200;52.194;9.900;2022-07-17T08:05:37;4.70;;;1.00;;
14231;SDS011;7200;52.194;9.900;2022-07-17T08:08:03;9.13;;;1.23;;
14231;SDS011;7200;52.194;9.900;2022-07-17T08:10:28;2.57;;;0.80;;
14231;SDS011;7200;52.194;9.900;2022-07-17T08:12:54;2.10;;;0.90;;
14231;SDS011;7200;52.194;9.900;2022-07-17T08:15:20;3.23;;;1.43;;
14231;SDS011;7200;52.194;9.900;2022-07-17T08:17:47;3.87;;;1.10;;
14231;SDS011;7200;52.194;9.900;2022-07-17T08:20:14;3.30;;;1.30;;
14231;SDS011;7200;52.194;9.900;2022-07-17T08:22:41;3.33;;;0.97;;
14231;SDS011;7200;52.194;9.900;2022-07-17T08:25:07;4.10;;;1.03;;
14231;SDS011;7200;52.194;9.900;2022-07-17T08:27:36;4.53;;;1.37;;
14231;SDS011;7200;52.194;9.900;2022-07-17T08:30:03;5.60;;;1.17;;
14231;SDS011;7200;52.194;9.900;2022-07-17T08:32:29;1.90;;;0.70;;
14231;SDS011;7200;52.194;9.900;2022-07-17T08:34:55;2.37;;;1.00;;
14231;SDS011;7200;52.194;9.900;2022-07-17T08:37:20;3.83;;;0.90;;
14231;SDS011;7200;52.194;9.900;2022-07-17T08:39:45;4.07;;;1.10;;
14231;SDS011;7200;52.194;9.900;2022-07-17T08:42:11;4.33;;;1.00;;
14231;SDS011;7200;52.194;9.900;2022-07-17T08:44:41;4.33;;;1.00;;
14231;SDS011;7200;52.194;9.900;2022-07-17T08:47:06;3.63;;;1.00;;
14231;SDS011;7200;52.194;9.900;2022-07-17T08:49:32;1.67;;;1.00;;
14231;SDS011;7200;52.194;9.900;2022-07-17T08:52:00;1.30;;;0.80;;
14231;SDS011;7200;52.194;9.900;2022-07-17T08:54:26;4.27;;;1.00;;
14231;SDS011;7200;52.194;9.900;2022-07-17T08:56:51;2.97;;;0.70;;
14231;SDS011;7200;52.194;9.900;2022-07-17T08:59:16;2.67;;;0.80;;
14231;SDS011;7200;52.194;9.900;2022-07-17T09:01:42;3.40;;;1.70;;
14231;SDS011;7200;52.194;9.900;2022-07-17T09:04:07;4.00;;;0.93;;
14231;SDS011;7200;52.194;9.900;2022-07-17T09:06:34;3.10;;;1.00;;
14231;SDS011;7200;52.194;9.900;2022-07-17T09:09:09;1.90;;;0.70;;
14231;SDS011;7200;52.194;9.900;2022-07-17T09:11:46;3.23;;;1.00;;
14231;SDS011;7200;52.194;9.900;2022-07-17T09:14:13;1.77;;;0.80;;
14231;SDS011;7200;52.194;9.900;2022-07-17T09:16:49;3.00;;;0.90;;
14231;SDS011;7200;52.194;9.900;2022-07-17T09:22:06;1.33;;;0.87;;
14231;SDS011;7200;52.194;9.900;2022-07-17T09:27:36;3.67;;;0.70;;
14231;SDS011;7200;52.194;9.900;2022-07-17T09:30:10;3.77;;;1.17;;
14231;SDS011;7200;52.194;9.900;2022-07-17T09:32:37;2.73;;;0.90;;
14231;SDS011;7200;52.194;9.900;2022-07-17T09:35:05;2.43;;;0.93;;
14231;SDS011;7200;52.194;9.900;2022-07-17T09:37:33;1.97;;;0.80;;
14231;SDS011;7200;52.194;9.900;2022-07-17T09:39:59;2.43;;;0.70;;
14231;SDS011;7200;52.194;9.900;2022-07-17T09:45:10;2.97;;;0.83;;
14231;SDS011;7200;52.194;9.900;2022-07-17T09:47:36;2.00;;;1.10;;
14231;SDS011;7200;52.194;9.900;2022-07-17T09:50:03;1.60;;;0.80;;
14231;SDS011;7200;52.194;9.900;2022-07-17T09:52:33;2.67;;;1.00;;
14231;SDS011;7200;52.194;9.900;2022-07-17T09:55:00;2.20;;;1.00;;
14231;SDS011;7200;52.194;9.900;2022-07-17T09:57:27;2.23;;;0.80;;
14231;SDS011;7200;52.194;9.900;2022-07-17T10:00:03;3.23;;;0.83;;
14231;SDS011;7200;52.194;9.900;2022-07-17T10:02:31;2.57;;;1.00;;
14231;SDS011;7200;52.194;9.900;2022-07-17T10:04:57;2.77;;;1.10;;
14231;SDS011;7200;52.194;9.900;2022-07-17T10:07:23;1.80;;;0.70;;
14231;SDS011;7200;52.194;9.900;2022-07-17T10:09:48;2.83;;;0.83;;
14231;SDS011;7200;52.194;9.900;2022-07-17T10:12:14;2.77;;;1.20;;
14231;SDS011;7200;52.194;9.900;2022-07-17T10:14:41;7.17;;;1.00;;
14231;SDS011;7200;52.194;9.900;2022-07-17T10:17:08;2.30;;;0.70;;
14231;SDS011;7200;52.194;9.900;2022-07-17T10:19:43;5.13;;;1.13;;
14231;SDS011;7200;52.194;9.900;2022-07-17T10:22:11;3.03;;;1.33;;
14231;SDS011;7200;52.194;9.900;2022-07-17T10:24:44;2.97;;;0.80;;
14231;SDS011;7200;52.194;9.900;2022-07-17T10:27:35;2.10;;;1.00;;
14231;SDS011;7200;52.194;9.900;2022-07-17T10:32:26;3.37;;;1.03;;
14231;SDS011;7200;52.194;9.900;2022-07-17T10:34:53;2.70;;;0.80;;
14231;SDS011;7200;52.194;9.900;2022-07-17T10:39:59;2.23;;;1.00;;
14231;SDS011;7200;52.194;9.900;2022-07-17T10:45:07;2.67;;;0.80;;
14231;SDS011;7200;52.194;9.900;2022-07-17T10:47:48;1.87;;;0.97;;
14231;SDS011;7200;52.194;9.900;2022-07-17T10:50:19;1.27;;;0.80;;
14231;SDS011;7200;52.194;9.900;2022-07-17T10:55:50;2.00;;;0.90;;
14231;SDS011;7200;52.194;9.900;2022-07-17T11:03:25;2.37;;;0.90;;
14231;SDS011;7200;52.194;9.900;2022-07-17T11:05:51;3.13;;;1.10;;
14231;SDS011;7200;52.194;9.900;2022-07-17T11:08:16;2.97;;;0.80;;
14231;SDS011;7200;52.194;9.900;2022-07-17T11:10:42;2.47;;;0.90;;
14231;SDS011;7200;52.194;9.900;2022-07-17T11:13:11;1.80;;;0.80;;
14231;SDS011;7200;52.194;9.900;2022-07-17T11:15:39;3.20;;;0.80;;
14231;SDS011;7200;52.194;9.900;2022-07-17T11:18:16;1.93;;;0.90;;
14231;SDS011;7200;52.194;9.900;2022-07-17T11:20:47;1.87;;;0.77;;
14231;SDS011;7200;52.194;9.900;2022-07-17T11:23:21;2.30;;;1.00;;
14231;SDS011;7200;52.194;9.900;2022-07-17T11:26:22;2.97;;;0.90;;
14231;SDS011;7200;52.194;9.900;2022-07-17T11:28:42;3.83;;;1.10;;
14231;SDS011;7200;52.194;9.900;2022-07-17T11:31:16;2.27;;;0.93;;
14231;SDS011;7200;52.194;9.900;2022-07-17T11:33:47;1.70;;;1.07;;
14231;SDS011;7200;52.194;9.900;2022-07-17T11:36:19;0.93;;;0.70;;
14231;SDS011;7200;52.194;9.900;2022-07-17T11:38:48;1.83;;;1.10;;
14231;SDS011;7200;52.194;9.900;2022-07-17T11:41:15;8.93;;;1.40;;
14231;SDS011;7200;52.194;9.900;2022-07-17T11:43:42;1.03;;;0.70;;
14231;SDS011;7200;52.194;9.900;2022-07-17T11:46:08;2.40;;;1.00;;
14231;SDS011;7200;52.194;9.900;2022-07-17T11:48:34;3.13;;;0.87;;
14231;SDS011;7200;52.194;9.900;2022-07-17T11:50:59;4.90;;;0.60;;
14231;SDS011;7200;52.194;9.900;2022-07-17T11:53:31;3.13;;;1.13;;
14231;SDS011;7200;52.194;9.900;2022-07-17T11:55:59;4.30;;;1.20;;
14231;SDS011;7200;52.194;9.900;2022-07-17T11:58:25;3.23;;;1.00;;
14231;SDS011;7200;52.194;9.900;2022-07-17T12:01:01;1.73;;;0.90;;
14231;SDS011;7200;52.194;9.900;2022-07-17T12:03:30;5.73;;;1.57;;
14231;SDS011;7200;52.194;9.900;2022-07-17T12:05:55;1.70;;;0.80;;
14231;SDS011;7200;52.194;9.900;2022-07-17T12:08:21;2.07;;;0.93;;
14231;SDS011;7200;52.194;9.900;2022-07-17T12:10:46;3.00;;;1.00;;
14231;SDS011;7200;52.194;9.900;2022-07-17T12:13:12;1.77;;;1.00;;
14231;SDS011;7200;52.194;9.900;2022-07-17T12:15:40;1.70;;;0.80;;
14231;SDS011;7200;52.194;9.900;2022-07-17T12:18:24;1.67;;;0.80;;
14231;SDS011;7200;52.194;9.900;2022-07-17T12:20:55;2.90;;;1.30;;
14231;SDS011;7200;52.194;9.900;2022-07-17T12:23:35;4.53;;;0.87;;
14231;SDS011;7200;52.194;9.900;2022-07-17T12:26:12;1.97;;;1.10;;
14231;SDS011;7200;52.194;9.900;2022-07-17T12:28:42;2.30;;;0.90;;
14231;SDS011;7200;52.194;9.900;2022-07-17T12:31:08;4.33;;;0.97;;
14231;SDS011;7200;52.194;9.900;2022-07-17T12:33:34;2.27;;;1.00;;
14231;SDS011;7200;52.194;9.900;2022-07-17T12:36:00;2.27;;;1.03;;
14231;SDS011;7200;52.194;9.900;2022-07-17T12:38:25;3.40;;;1.67;;
14231;SDS011;7200;52.194;9.900;2022-07-17T12:40:50;2.57;;;1.10;;
14231;SDS011;7200;52.194;9.900;2022-07-17T12:43:16;2.97;;;0.90;;
14231;SDS011;7200;52.194;9.900;2022-07-17T12:45:41;2.73;;;1.00;;
14231;SDS011;7200;52.194;9.900;2022-07-17T12:48:06;2.23;;;0.90;;
14231;SDS011;7200;52.194;9.900;2022-07-17T12:50:31;2.07;;;1.00;;
14231;SDS011;7200;52.194;9.900;2022-07-17T12:52:57;1.50;;;1.00;;
14231;SDS011;7200;52.194;9.900;2022-07-17T12:55:23;1.40;;;0.70;;
14231;SDS011;7200;52.194;9.900;2022-07-17T12:57:48;1.40;;;0.70;;
14231;SDS011;7200;52.194;9.900;2022-07-17T13:00:17;2.07;;;1.10;;
14231;SDS011;7200;52.194;9.900;2022-07-17T13:02:42;0.70;;;0.70;;
14231;SDS011;7200;52.194;9.900;2022-07-17T13:05:08;1.47;;;0.90;;
14231;SDS011;7200;52.194;9.900;2022-07-17T13:07:33;2.23;;;0.73;;
14231;SDS011;7200;52.194;9.900;2022-07-17T13:09:59;1.13;;;0.80;;
14231;SDS011;7200;52.194;9.900;2022-07-17T13:12:25;1.10;;;0.80;;
14231;SDS011;7200;52.194;9.900;2022-07-17T13:14:50;2.70;;;1.00;;
14231;SDS011;7200;52.194;9.900;2022-07-17T13:17:15;0.97;;;0.80;;
14231;SDS011;7200;52.194;9.900;2022-07-17T13:19:41;1.80;;;0.90;;
14231;SDS011;7200;52.194;9.900;2022-07-17T13:22:06;2.30;;;0.90;;
14231;SDS011;7200;52.194;9.900;2022-07-17T13:24:32;2.30;;;1.10;;
14231;SDS011;7200;52.194;9.900;2022-07-17T13:26:58;1.43;;;0.80;;
14231;SDS011;7200;52.194;9.900;2022-07-17T13:29:24;1.27;;;0.80;;
14231;SDS011;7200;52.194;9.900;2022-07-17T13:31:51;0.93;;;0.80;;
14231;SDS011;7200;52.194;9.900;2022-07-17T13:34:17;2.37;;;1.50;;
14231;SDS011;7200;52.194;9.900;2022-07-17T13:36:42;1.57;;;0.90;;
14231;SDS011;7200;52.194;9.900;2022-07-17T13:39:08;2.33;;;0.90;;
14231;SDS011;7200;52.194;9.900;2022-07-17T13:41:33;2.90;;;0.87;;
14231;SDS011;7200;52.194;9.900;2022-07-17T13:43:59;1.93;;;0.90;;
14231;SDS011;7200;52.194;9.900;2022-07-17T13:46:24;1.53;;;0.70;;
14231;SDS011;7200;52.194;9.900;2022-07-17T13:48:50;1.30;;;0.60;;
14231;SDS011;7200;52.194;9.900;2022-07-17T13:51:15;0.97;;;0.70;;
14231;SDS011;7200;52.194;9.900;2022-07-17T13:53:41;1.63;;;1.00;;
14231;SDS011;7200;52.194;9.900;2022-07-17T13:56:07;1.03;;;0.53;;
14231;SDS011;7200;52.194;9.900;2022-07-17T13:58:32;0.63;;;0.63;;
14231;SDS011;7200;52.194;9.900;2022-07-17T14:00:59;1.13;;;0.70;;
14231;SDS011;7200;52.194;9.900;2022-07-17T14:03:24;1.20;;;0.80;;
14231;SDS011;7200;52.194;9.900;2022-07-17T14:05:50;1.30;;;0.97;;
14231;SDS011;7200;52.194;9.900;2022-07-17T14:08:15;3.90;;;0.97;;
14231;SDS011;7200;52.194;9.900;2022-07-17T14:10:40;1.87;;;0.63;;
14231;SDS011;7200;52.194;9.900;2022-07-17T14:13:06;2.00;;;0.57;;
14231;SDS011;7200;52.194;9.900;2022-07-17T14:15:31;1.37;;;0.80;;
14231;SDS011;7200;52.194;9.900;2022-07-17T14:17:57;0.77;;;0.57;;
14231;SDS011;7200;52.194;9.900;2022-07-17T14:20:22;2.60;;;0.60;;
14231;SDS011;7200;52.194;9.900;2022-07-17T14:22:48;5.97;;;0.97;;
14231;SDS011;7200;52.194;9.900;2022-07-17T14:25:13;2.07;;;0.70;;
14231;SDS011;7200;52.194;9.900;2022-07-17T14:27:39;1.53;;;0.80;;
14231;SDS011;7200;52.194;9.900;2022-07-17T14:30:04;2.40;;;0.70;;
14231;SDS011;7200;52.194;9.900;2022-07-17T14:32:30;1.15;;;0.80;;
14231;SDS011;7200;52.194;9.900;2022-07-17T14:34:55;1.75;;;0.50;;
14231;SDS011;7200;52.194;9.900;2022-07-17T14:37:21;0.95;;;0.70;;
14231;SDS011;7200;52.194;9.900;2022-07-17T14:39:46;4.53;;;0.60;;
14231;SDS011;7200;52.194;9.900;2022-07-17T14:42:12;2.67;;;0.60;;
14231;SDS011;7200;52.194;9.900;2022-07-17T14:44:37;1.02;;;0.55;;
14231;SDS011;7200;52.194;9.900;2022-07-17T14:47:02;1.50;;;0.60;;
14231;SDS011;7200;52.194;9.900;2022-07-17T14:49:28;2.00;;;0.63;;
14231;SDS011;7200;52.194;9.900;2022-07-17T14:51:53;1.35;;;0.80;;
14231;SDS011;7200;52.194;9.900;2022-07-17T14:54:19;2.17;;;0.77;;
14231;SDS011;7200;52.194;9.900;2022-07-17T14:56:44;1.92;;;0.50;;
14231;SDS011;7200;52.194;9.900;2022-07-17T14:59:10;1.45;;;0.60;;
14231;SDS011;7200;52.194;9.900;2022-07-17T15:01:35;0.85;;;0.60;;
14231;SDS011;7200;52.194;9.900;2022-07-17T15:04:00;1.98;;;0.75;;
14231;SDS011;7200;52.194;9.900;2022-07-17T15:06:26;1.33;;;0.60;;
14231;SDS011;7200;52.194;9.900;2022-07-17T15:08:51;0.80;;;0.70;;
14231;SDS011;7200;52.194;9.900;2022-07-17T15:11:16;0.95;;;0.50;;
14231;SDS011;7200;52.194;9.900;2022-07-17T15:13:42;1.80;;;0.82;;
14231;SDS011;7200;52.194;9.900;2022-07-17T15:16:07;1.20;;;0.90;;
14231;SDS011;7200;52.194;9.900;2022-07-17T15:18:32;1.88;;;0.85;;
14231;SDS011;7200;52.194;9.900;2022-07-17T15:20:58;2.13;;;0.73;;